Time;durP1;ratioP1;P1;durP2;ratioP2;P2;SDS_P1;SDS_P2;PMS_P1;PMS_P2;Temp;Humidity;BMP_temperature;BMP_pressure;BME280_temperature;BME280_humidity;BME280_pressure;Samples;Min_cycle;Max_cycle;Signal;HPM_P1;HPM_P2
2023/11/24 00:00:40;;;;;;;1.23;0.68;;;;;;;7.73;100.00;97528.47;6103110;19;20490;-74
2023/11/24 00:02:40;;;;;;;1.65;0.80;;;;;;;7.60;100.00;97558.25;6103720;19;20511;-75
2023/11/24 00:04:41;;;;;;;2.85;0.93;;;;;;;7.05;100.00;97577.38;6102480;19;20324;-75
2023/11/24 00:06:41;;;;;;;4.93;1.10;;;;;;;6.91;100.00;97555.22;6102462;19;20010;-75
2023/11/24 00:08:42;;;;;;;5.15;1.23;;;;;;;6.52;100.00;97563.78;6100864;19;20069;-74
2023/11/24 00:10:43;;;;;;;4.55;1.38;;;;;;;6.35;100.00;97583.59;6102055;19;20002;-75
2023/11/24 00:12:44;;;;;;;4.47;1.40;;;;;;;6.28;100.00;97565.03;6103859;19;20025;-75
2023/11/24 00:14:44;;;;;;;3.72;1.20;;;;;;;6.26;100.00;97575.63;6101755;19;19999;-74
2023/11/24 00:16:47;;;;;;;2.55;0.98;;;;;;;6.15;100.00;97580.19;6103121;19;20346;-75
2023/11/24 00:18:47;;;;;;;6.88;1.23;;;;;;;6.11;100.00;97560.88;6101523;19;20007;-75
2023/11/24 00:20:48;;;;;;;3.38;1.10;;;;;;;6.14;100.00;97584.88;6101732;19;20459;-75
2023/11/24 00:22:48;;;;;;;2.28;1.38;;;;;;;6.19;100.00;97581.78;6102247;19;20399;-75
2023/11/24 00:24:51;;;;;;;2.60;1.20;;;;;;;6.18;100.00;97582.16;6102252;19;20937;-75
2023/11/24 00:26:52;;;;;;;3.28;1.38;;;;;;;6.16;100.00;97576.25;6101562;19;19999;-75
2023/11/24 00:28:55;;;;;;;3.47;0.90;;;;;;;6.18;100.00;97577.47;6102237;19;20577;-75
2023/11/24 00:30:55;;;;;;;3.95;1.00;;;;;;;6.20;100.00;97580.63;6101327;19;20450;-75
2023/11/24 00:32:56;;;;;;;2.78;1.00;;;;;;;6.25;100.00;97568.53;6102516;19;20006;-75
2023/11/24 00:34:58;;;;;;;1.45;0.70;;;;;;;6.28;100.00;97580.72;6102382;19;20120;-75
2023/11/24 00:36:58;;;;;;;2.28;1.40;;;;;;;6.37;100.00;97601.31;6101381;19;20005;-75
2023/11/24 00:38:59;;;;;;;4.07;0.88;;;;;;;6.45;100.00;97621.41;6100801;19;20006;-75
2023/11/24 00:41:00;;;;;;;3.63;0.93;;;;;;;6.47;100.00;97617.13;6101915;19;20086;-75
2023/11/24 00:43:01;;;;;;;3.53;0.90;;;;;;;6.44;100.00;97639.84;6102562;19;20020;-75
2023/11/24 00:45:03;;;;;;;1.35;0.73;;;;;;;6.37;100.00;97633.44;6101417;19;20459;-75
2023/11/24 00:47:04;;;;;;;2.45;0.70;;;;;;;6.35;100.00;97633.03;6101113;19;20003;-75
2023/11/24 00:49:04;;;;;;;2.45;1.27;;;;;;;6.26;100.00;97619.56;6101092;19;20009;-75
2023/11/24 00:51:06;;;;;;;2.00;0.88;;;;;;;6.16;100.00;97639.44;6102009;19;20006;-75
2023/11/24 00:53:07;;;;;;;1.17;0.65;;;;;;;6.05;100.00;97660.47;6101407;19;20011;-75
2023/11/24 00:55:07;;;;;;;0.80;0.65;;;;;;;5.89;100.00;97677.81;6101990;19;20034;-75
2023/11/24 00:57:08;;;;;;;4.72;0.82;;;;;;;5.72;100.00;97670.06;6098514;19;20329;-74
2023/11/24 00:59:08;;;;;;;1.00;0.60;;;;;;;5.48;100.00;97648.47;6101356;19;20013;-74
2023/11/24 01:01:09;;;;;;;2.10;0.60;;;;;;;5.35;100.00;97640.41;6101767;19;20002;-75
2023/11/24 01:03:09;;;;;;;2.05;0.85;;;;;;;5.28;100.00;97629.28;6100121;19;20006;-75
2023/11/24 01:05:10;;;;;;;2.05;0.90;;;;;;;5.27;100.00;97618.69;6099874;19;20006;-75
2023/11/24 01:07:10;;;;;;;3.20;0.70;;;;;;;5.23;100.00;97609.63;6099277;19;20036;-76
2023/11/24 01:09:10;;;;;;;1.27;0.75;;;;;;;5.27;100.00;97624.16;6100860;19;20082;-75
2023/11/24 01:11:11;;;;;;;1.95;0.80;;;;;;;5.35;100.00;97632.16;6101359;19;20014;-75
2023/11/24 01:13:11;;;;;;;1.63;1.30;;;;;;;5.39;100.00;97639.69;6100541;19;20387;-75
2023/11/24 01:15:14;;;;;;;0.73;0.50;;;;;;;5.36;100.00;97627.47;6100834;19;20784;-75
2023/11/24 01:17:14;;;;;;;3.22;1.33;;;;;;;5.33;100.00;97619.97;6098226;19;20010;-75
2023/11/24 01:19:15;;;;;;;0.68;0.60;;;;;;;5.44;100.00;97629.19;6101141;19;19999;-75
2023/11/24 01:21:17;;;;;;;0.88;0.82;;;;;;;5.39;100.00;97618.53;6098217;19;20002;-76
2023/11/24 01:23:17;;;;;;;1.83;1.10;;;;;;;5.38;100.00;97643.56;6100861;19;20013;-76
2023/11/24 01:25:18;;;;;;;2.03;0.80;;;;;;;5.44;100.00;97647.59;6099461;19;20342;-75
2023/11/24 01:27:18;;;;;;;1.52;0.80;;;;;;;5.40;100.00;97644.81;6098721;19;20023;-75
2023/11/24 01:29:18;;;;;;;1.75;0.60;;;;;;;5.40;100.00;97624.81;6100683;19;19999;-76
2023/11/24 01:31:19;;;;;;;1.38;0.70;;;;;;;5.33;100.00;97648.19;6101292;19;20402;-76
2023/11/24 01:33:19;;;;;;;2.72;1.10;;;;;;;5.35;100.00;97656.06;6100250;19;20340;-76
2023/11/24 01:35:20;;;;;;;0.95;0.70;;;;;;;5.39;100.00;97647.91;6100651;19;20027;-75
2023/11/24 01:37:21;;;;;;;3.70;0.80;;;;;;;5.37;100.00;97653.75;6098768;19;20002;-75
2023/11/24 01:39:22;;;;;;;3.42;0.90;;;;;;;5.30;100.00;97639.91;6100809;19;20006;-75
2023/11/24 01:41:22;;;;;;;0.82;0.63;;;;;;;5.22;100.00;97630.75;6101008;19;20078;-75
2023/11/24 01:43:22;;;;;;;1.75;0.70;;;;;;;5.18;100.00;97645.53;6097882;19;20417;-75
2023/11/24 01:45:23;;;;;;;3.58;0.82;;;;;;;5.24;100.00;97644.09;6100870;19;20007;-75
2023/11/24 01:47:24;;;;;;;2.47;0.75;;;;;;;5.14;100.00;97645.50;6099024;19;20078;-75
2023/11/24 01:49:27;;;;;;;0.77;0.73;;;;;;;5.12;100.00;97642.28;6097831;19;20432;-75
2023/11/24 01:51:28;;;;;;;0.82;0.50;;;;;;;5.08;100.00;97636.75;6100081;19;20015;-75
2023/11/24 01:53:29;;;;;;;4.35;0.80;;;;;;;5.07;100.00;97629.69;6098234;19;20462;-75
2023/11/24 01:55:29;;;;;;;0.65;0.60;;;;;;;5.11;100.00;97618.00;6100703;19;19998;-75
2023/11/24 01:57:33;;;;;;;1.60;0.98;;;;;;;5.00;100.00;97621.31;6098076;19;20498;-75
2023/11/24 01:59:35;;;;;;;0.60;0.60;;;;;;;5.00;100.00;97615.03;6098108;19;19998;-75
2023/11/24 02:01:36;;;;;;;2.47;0.80;;;;;;;4.99;100.00;97611.50;6101051;19;20597;-75
2023/11/24 02:03:36;;;;;;;1.80;0.70;;;;;;;4.96;100.00;97608.69;6099015;19;19998;-75
2023/11/24 02:05:37;;;;;;;2.75;0.70;;;;;;;4.98;100.00;97609.13;6099903;19;20006;-75
2023/11/24 02:07:40;;;;;;;3.08;0.90;;;;;;;4.85;100.00;97594.78;6103180;19;20420;-75
2023/11/24 02:09:41;;;;;;;;;;;;;;;4.87;100.00;97584.25;6112605;19;20006;-75
2023/11/24 02:11:41;;;;;;;1.35;0.88;;;;;;;4.79;100.00;97586.03;6109436;19;19946;-75
2023/11/24 02:13:41;;;;;;;2.78;1.23;;;;;;;4.74;100.00;97588.31;6109142;19;20070;-75
2023/11/24 02:15:42;;;;;;;2.10;0.93;;;;;;;4.71;100.00;97600.75;6111941;19;20007;-75
2023/11/24 02:17:42;;;;;;;1.33;0.90;;;;;;;4.60;100.00;97624.41;6108012;19;20086;-76
2023/11/24 02:19:44;;;;;;;2.38;0.88;;;;;;;4.53;100.00;97632.47;6110997;19;20362;-75
2023/11/24 02:21:45;;;;;;;3.72;0.80;;;;;;;4.43;100.00;97631.09;6110813;19;20429;-75
2023/11/24 02:23:45;;;;;;;4.00;1.00;;;;;;;4.39;100.00;97634.94;6112595;19;20031;-75
2023/11/24 02:25:45;;;;;;;3.58;1.05;;;;;;;4.45;100.00;97628.00;6109260;19;20010;-75
2023/11/24 02:27:46;;;;;;;3.05;0.90;;;;;;;4.47;100.00;97633.94;6102365;19;20007;-76
2023/11/24 02:29:50;;;;;;;1.67;0.80;;;;;;;4.47;100.00;97640.22;6112911;19;20110;-75
2023/11/24 02:31:50;;;;;;;5.03;1.08;;;;;;;4.56;100.00;97644.69;6111836;19;20070;-75
2023/11/24 02:33:51;;;;;;;3.05;1.00;;;;;;;4.50;100.00;97634.00;6110661;19;20034;-76
2023/11/24 02:35:53;;;;;;;4.13;1.10;;;;;;;4.60;100.00;97648.28;6109604;19;20006;-75
2023/11/24 02:37:54;;;;;;;4.28;1.00;;;;;;;4.57;100.00;97647.06;6110377;19;20010;-75
2023/11/24 02:39:54;;;;;;;4.00;1.15;;;;;;;4.54;100.00;97636.81;6109522;19;20008;-75
2023/11/24 02:41:54;;;;;;;1.75;0.95;;;;;;;4.46;100.00;97633.13;6110731;19;20019;-75
2023/11/24 02:43:55;;;;;;;2.83;1.02;;;;;;;4.38;100.00;97627.84;6109414;19;20002;-75
2023/11/24 02:45:55;;;;;;;4.53;1.10;;;;;;;4.40;100.00;97611.88;6108748;19;20006;-75
2023/11/24 02:47:55;;;;;;;3.70;1.20;;;;;;;4.39;100.00;97619.28;6108470;19;20038;-75
2023/11/24 02:49:56;;;;;;;5.82;1.00;;;;;;;4.32;100.00;97619.13;6110061;19;20336;-76
2023/11/24 02:51:58;;;;;;;2.97;1.05;;;;;;;4.30;100.00;97615.94;6111257;19;20788;-75
2023/11/24 02:53:59;;;;;;;2.80;0.80;;;;;;;4.29;100.00;97603.41;6110839;19;20012;-76
2023/11/24 02:56:00;;;;;;;3.78;0.95;;;;;;;4.35;100.00;97609.41;6110926;19;20003;-76
2023/11/24 02:58:01;;;;;;;3.72;1.42;;;;;;;4.36;100.00;97605.50;6107709;19;20470;-75
2023/11/24 03:00:02;;;;;;;4.75;1.30;;;;;;;4.45;100.00;97604.13;6110207;19;20047;-75
2023/11/24 03:02:02;;;;;;;14.13;1.77;;;;;;;4.46;100.00;97610.41;6110604;19;20418;-75
2023/11/24 03:04:03;;;;;;;6.03;1.27;;;;;;;4.47;100.00;97606.53;6109483;19;20008;-75
2023/11/24 03:06:05;;;;;;;2.95;0.85;;;;;;;4.47;100.00;97601.06;6110787;19;20003;-75
2023/11/24 03:08:05;;;;;;;4.00;1.13;;;;;;;4.56;100.00;97609.88;6107039;19;20418;-76
2023/11/24 03:10:08;;;;;;;5.55;1.23;;;;;;;4.54;100.00;97612.16;6111035;19;20066;-75
2023/11/24 03:12:08;;;;;;;;;;;;;;;4.59;100.00;97608.34;6110963;19;20014;-75
2023/11/24 03:14:08;;;;;;;4.07;1.08;;;;;;;4.51;100.00;97597.22;6110125;19;20248;-76
2023/11/24 03:16:09;;;;;;;3.88;1.25;;;;;;;4.55;100.00;97600.06;6110134;19;20494;-75
2023/11/24 03:18:09;;;;;;;3.53;1.02;;;;;;;4.47;100.00;97595.59;6107754;19;20039;-76
2023/11/24 03:20:12;;;;;;;5.47;1.73;;;;;;;4.46;100.00;97586.56;6102822;19;20454;-75
2023/11/24 03:22:12;;;;;;;;;;;;;;;4.48;100.00;97589.75;6104247;19;20070;-75
2023/11/24 03:24:12;;;;;;;5.78;1.00;;;;;;;4.47;100.00;97584.63;6104430;19;19898;-75
2023/11/24 03:26:13;;;;;;;4.57;1.20;;;;;;;4.49;100.00;97576.84;6102182;19;19995;-75
2023/11/24 03:28:13;;;;;;;5.97;2.00;;;;;;;4.46;100.00;97572.06;6094674;19;20003;-76
2023/11/24 03:30:13;;;;;;;5.07;1.13;;;;;;;4.45;100.00;97581.44;6093503;19;20802;-75
2023/11/24 03:32:14;;;;;;;9.45;2.00;;;;;;;4.41;100.00;97577.84;6094249;19;20310;-75
2023/11/24 03:34:14;;;;;;;4.82;1.20;;;;;;;4.44;100.00;97585.34;6092901;19;20470;-75
2023/11/24 03:36:15;;;;;;;6.35;1.17;;;;;;;4.36;100.00;97578.91;6094764;19;20013;-75
2023/11/24 03:38:15;;;;;;;4.97;1.30;;;;;;;4.27;100.00;97583.81;6093371;19;19998;-76
2023/11/24 03:40:16;;;;;;;12.60;1.90;;;;;;;4.24;100.00;97590.00;6096040;19;20082;-75
2023/11/24 03:42:16;;;;;;;3.20;1.17;;;;;;;4.30;100.00;97593.22;6095547;19;20376;-75
2023/11/24 03:44:17;;;;;;;5.82;1.13;;;;;;;4.22;100.00;97584.88;6095205;19;20299;-75
2023/11/24 03:46:17;;;;;;;4.68;1.15;;;;;;;4.33;100.00;97587.06;6094521;19;20077;-75
2023/11/24 03:48:21;;;;;;;3.55;1.50;;;;;;;4.31;100.00;97584.69;6094686;19;20526;-75
2023/11/24 03:50:21;;;;;;;4.72;1.15;;;;;;;4.23;100.00;97586.47;6092374;19;20022;-75
2023/11/24 03:52:21;;;;;;;3.28;1.17;;;;;;;4.13;100.00;97583.47;6095796;19;20010;-76
2023/11/24 03:54:22;;;;;;;2.83;1.27;;;;;;;4.07;100.00;97582.97;6095110;19;20345;-75
2023/11/24 03:56:22;;;;;;;5.95;1.40;;;;;;;4.04;100.00;97575.47;6094844;19;20011;-74
2023/11/24 03:58:23;;;;;;;4.22;1.15;;;;;;;4.10;100.00;97581.47;6091488;19;20029;-75
2023/11/24 04:00:23;;;;;;;5.00;1.10;;;;;;;4.15;100.00;97564.78;6095470;19;20010;-75
2023/11/24 04:02:24;;;;;;;6.40;1.88;;;;;;;4.14;100.00;97569.47;6094236;19;20458;-75
2023/11/24 04:04:24;;;;;;;5.90;1.65;;;;;;;4.22;100.00;97568.47;6094320;19;20026;-75
2023/11/24 04:06:25;;;;;;;2.67;1.15;;;;;;;4.15;100.00;97576.50;6094149;19;20606;-75
2023/11/24 04:08:25;;;;;;;5.70;1.77;;;;;;;4.11;100.00;97563.88;6093417;19;20007;-75
2023/11/24 04:10:25;;;;;;;3.92;1.17;;;;;;;4.15;100.00;97565.56;6094182;19;20434;-74
2023/11/24 04:12:26;;;;;;;7.80;1.50;;;;;;;4.10;100.00;97562.31;6094905;19;20487;-75
2023/11/24 04:14:26;;;;;;;5.90;1.05;;;;;;;4.00;100.00;97577.34;6091990;19;20474;-75
2023/11/24 04:16:28;;;;;;;7.57;1.45;;;;;;;3.99;100.00;97561.28;6090895;19;20014;-74
2023/11/24 04:18:28;;;;;;;5.95;1.83;;;;;;;3.89;100.00;97554.41;6092841;19;20078;-75
2023/11/24 04:20:28;;;;;;;8.52;1.45;;;;;;;3.82;100.00;97554.25;6094582;19;20010;-75
2023/11/24 04:22:29;;;;;;;8.30;1.55;;;;;;;3.77;100.00;97554.53;6095390;19;20343;-76
2023/11/24 04:24:30;;;;;;;5.65;0.95;;;;;;;3.72;100.00;97550.09;6093007;19;20018;-75
2023/11/24 04:26:30;;;;;;;5.00;0.95;;;;;;;3.64;100.00;97549.16;6091959;19;20014;-75
2023/11/24 04:28:30;;;;;;;3.92;1.10;;;;;;;3.65;100.00;97547.22;6099008;19;20086;-75
2023/11/24 04:30:31;;;;;;;3.85;1.15;;;;;;;3.58;100.00;97556.03;6098671;19;20014;-75
2023/11/24 04:32:31;;;;;;;4.72;1.20;;;;;;;3.59;100.00;97541.22;6101398;19;20066;-75
2023/11/24 04:34:31;;;;;;;3.50;1.05;;;;;;;3.59;100.00;97543.97;6102620;19;20044;-75
2023/11/24 04:36:32;;;;;;;4.75;1.42;;;;;;;3.55;100.00;97532.13;6101902;19;20442;-75
2023/11/24 04:38:32;;;;;;;6.50;1.40;;;;;;;3.59;100.00;97537.69;6100922;19;20094;-75
2023/11/24 04:40:32;;;;;;;6.43;1.45;;;;;;;3.55;100.00;97532.13;6103261;19;20045;-75
2023/11/24 04:42:33;;;;;;;2.33;1.00;;;;;;;3.60;100.00;97545.53;6103072;19;20014;-76
2023/11/24 04:44:33;;;;;;;3.90;1.40;;;;;;;3.61;100.00;97541.66;6100589;19;20010;-75
2023/11/24 04:46:33;;;;;;;7.47;1.50;;;;;;;3.60;100.00;97531.06;6101101;19;20074;-76
2023/11/24 04:48:40;;;;;;;5.75;1.33;;;;;;;3.70;100.00;97525.06;6098909;19;20010;-76
2023/11/24 04:50:41;;;;;;;5.28;1.20;;;;;;;3.81;100.00;97531.56;6103087;19;20011;-75
2023/11/24 04:52:41;;;;;;;5.53;1.52;;;;;;;3.79;100.00;97533.06;6102056;19;20018;-75
2023/11/24 04:54:42;;;;;;;4.72;1.40;;;;;;;3.76;100.00;97520.09;6102247;19;20082;-75
2023/11/24 04:56:42;;;;;;;3.65;1.17;;;;;;;3.79;100.00;97530.31;6100118;19;20014;-75
2023/11/24 04:58:43;;;;;;;8.18;2.03;;;;;;;3.76;100.00;97531.03;6100964;19;20015;-76
2023/11/24 05:00:43;;;;;;;6.10;1.65;;;;;;;3.78;100.00;97539.69;6101975;19;20463;-75
2023/11/24 05:02:43;;;;;;;5.53;1.20;;;;;;;3.76;100.00;97526.38;6102196;19;20006;-75
2023/11/24 05:04:44;;;;;;;4.90;1.30;;;;;;;3.70;100.00;97522.31;6101460;19;20027;-75
2023/11/24 05:06:44;;;;;;;10.77;5.18;;;;;;;3.77;100.00;97524.44;6095284;19;20473;-75
2023/11/24 05:08:44;;;;;;;6.78;3.33;;;;;;;3.79;100.00;97511.97;6100373;19;20407;-75
2023/11/24 05:10:45;;;;;;;10.88;2.80;;;;;;;3.84;100.00;97513.66;6102225;19;20226;-75
2023/11/24 05:12:45;;;;;;;3.20;1.60;;;;;;;3.76;100.00;97509.94;6102147;19;20024;-75
2023/11/24 05:14:46;;;;;;;4.13;1.60;;;;;;;3.78;100.00;97520.53;6100962;19;20034;-75
2023/11/24 05:16:47;;;;;;;8.02;2.75;;;;;;;3.75;100.00;97516.56;6101489;19;20033;-75
2023/11/24 05:18:49;;;;;;;6.57;2.08;;;;;;;3.75;100.00;97516.56;6100731;19;20018;-75
2023/11/24 05:20:49;;;;;;;8.30;1.58;;;;;;;3.78;100.00;97512.31;6101749;19;20454;-75
2023/11/24 05:22:50;;;;;;;4.28;1.65;;;;;;;3.75;100.00;97515.78;6102692;19;20014;-75
2023/11/24 05:24:50;;;;;;;5.45;1.65;;;;;;;3.70;100.00;97507.84;6101996;19;20037;-75
2023/11/24 05:26:50;;;;;;;6.53;1.50;;;;;;;3.75;100.00;97511.09;6097846;19;20011;-75
2023/11/24 05:28:51;;;;;;;7.88;2.10;;;;;;;3.72;100.00;97509.06;6100228;19;20090;-75
2023/11/24 05:30:52;;;;;;;1.95;1.40;;;;;;;3.70;100.00;97508.63;6102502;19;20017;-75
2023/11/24 05:32:52;;;;;;;5.93;1.70;;;;;;;3.71;100.00;97509.44;6101667;19;20018;-75
2023/11/24 05:34:53;;;;;;;5.53;2.85;;;;;;;3.61;100.00;97500.63;6100164;19;20324;-75
2023/11/24 05:36:54;;;;;;;4.60;2.05;;;;;;;3.58;100.00;97508.75;6100574;19;20006;-75
2023/11/24 05:38:55;;;;;;;5.60;1.70;;;;;;;3.52;100.00;97497.28;6100814;19;20017;-75
2023/11/24 05:40:55;;;;;;;12.57;6.25;;;;;;;3.52;100.00;97499.22;6101231;19;20288;-75
2023/11/24 05:42:56;;;;;;;4.45;1.77;;;;;;;3.55;100.00;97503.97;6099740;19;20472;-75
2023/11/24 05:44:56;;;;;;;7.63;2.20;;;;;;;3.53;100.00;97500.81;6101469;19;20010;-75
2023/11/24 05:46:56;;;;;;;6.18;1.92;;;;;;;3.53;100.00;97509.03;6099277;19;20005;-75
2023/11/24 05:48:57;;;;;;;12.07;2.33;;;;;;;3.57;100.00;97499.75;6100317;19;20500;-75
2023/11/24 05:50:58;;;;;;;3.03;1.55;;;;;;;3.60;100.00;97503.72;6101037;19;20010;-75
2023/11/24 05:52:59;;;;;;;7.05;1.77;;;;;;;3.64;100.00;97507.31;6099655;19;20736;-75
2023/11/24 05:55:01;;;;;;;3.95;1.80;;;;;;;3.66;100.00;97499.56;6054534;19;20006;-75
2023/11/24 05:57:01;;;;;;;7.22;1.80;;;;;;;3.75;100.00;97507.56;6097353;19;20007;-75
2023/11/24 05:59:01;;;;;;;8.57;1.85;;;;;;;3.70;100.00;97518.78;6100426;19;20075;-75
2023/11/24 06:01:02;;;;;;;11.63;2.45;;;;;;;3.68;100.00;97494.53;6099251;19;20006;-75
2023/11/24 06:03:02;;;;;;;3.35;1.88;;;;;;;3.63;100.00;97503.78;6100265;19;20015;-75
2023/11/24 06:05:03;;;;;;;4.95;2.20;;;;;;;3.59;100.00;97499.41;6100360;19;19998;-75
2023/11/24 06:07:04;;;;;;;11.75;2.60;;;;;;;3.53;100.00;97495.34;6098952;19;20007;-75
2023/11/24 06:09:06;;;;;;;5.25;1.63;;;;;;;3.51;100.00;97495.72;6101367;19;20258;-75
2023/11/24 06:11:07;;;;;;;5.38;2.10;;;;;;;3.47;100.00;97488.56;6102172;19;20010;-75
2023/11/24 06:13:07;;;;;;;6.72;1.58;;;;;;;3.44;100.00;97481.06;6099872;19;20017;-75
2023/11/24 06:15:09;;;;;;;5.85;1.50;;;;;;;3.41;100.00;97485.31;6100265;19;21641;-75
2023/11/24 06:17:09;;;;;;;6.90;1.30;;;;;;;3.33;100.00;97473.41;6099142;19;19998;-74
2023/11/24 06:19:09;;;;;;;5.57;1.73;;;;;;;3.29;100.00;97477.19;6099947;19;20403;-75
2023/11/24 06:21:12;;;;;;;8.13;2.40;;;;;;;3.31;100.00;97478.47;6100824;19;20002;-74
2023/11/24 06:23:12;;;;;;;6.03;1.52;;;;;;;3.30;100.00;97481.53;6098563;19;20329;-75
2023/11/24 06:25:13;;;;;;;7.93;1.50;;;;;;;3.36;100.00;97477.38;6100449;19;20062;-75
2023/11/24 06:27:13;;;;;;;8.60;1.90;;;;;;;3.36;100.00;97467.22;6096492;19;20047;-75
2023/11/24 06:29:14;;;;;;;4.90;1.45;;;;;;;3.37;100.00;97474.28;6097915;19;20002;-75
2023/11/24 06:31:15;;;;;;;10.75;2.47;;;;;;;3.43;100.00;97471.28;6100207;19;20010;-75
2023/11/24 06:33:16;;;;;;;5.07;1.42;;;;;;;3.42;100.00;97475.97;6096650;19;20030;-75
2023/11/24 06:35:16;;;;;;;7.43;1.65;;;;;;;3.49;100.00;97480.81;6095120;19;20007;-75
2023/11/24 06:37:17;;;;;;;5.15;1.20;;;;;;;3.57;100.00;97479.81;6098044;19;20028;-75
2023/11/24 06:39:19;;;;;;;7.90;2.67;;;;;;;3.51;100.00;97482.03;6097110;19;20023;-75
2023/11/24 06:41:20;;;;;;;3.70;2.22;;;;;;;3.55;100.00;97474.69;6097915;19;20352;-74
2023/11/24 06:43:21;;;;;;;8.90;1.80;;;;;;;3.48;100.00;97468.28;6097020;19;20006;-75
2023/11/24 06:45:21;;;;;;;8.93;3.10;;;;;;;3.48;100.00;97479.22;6100138;19;19999;-75
2023/11/24 06:47:23;;;;;;;5.22;1.98;;;;;;;3.38;100.00;97477.81;6099182;19;20010;-75
2023/11/24 06:49:23;;;;;;;3.28;2.15;;;;;;;3.34;100.00;97485.94;6099712;19;20066;-75
2023/11/24 06:51:24;;;;;;;6.68;1.77;;;;;;;3.26;100.00;97481.44;6099956;19;20471;-74
2023/11/24 06:53:26;;;;;;;9.50;1.48;;;;;;;3.18;100.00;97487.09;6099492;19;20597;-75
2023/11/24 06:55:27;;;;;;;6.85;1.75;;;;;;;3.17;100.00;97483.56;6104030;19;20002;-75
2023/11/24 06:57:27;;;;;;;6.10;1.55;;;;;;;3.14;100.00;97469.81;6104179;19;20500;-75
2023/11/24 06:59:27;;;;;;;5.05;1.65;;;;;;;3.11;100.00;97474.03;6104569;19;19999;-75
2023/11/24 07:01:31;;;;;;;7.18;1.48;;;;;;;3.03;100.00;97472.28;6106275;19;20002;-75
2023/11/24 07:03:32;;;;;;;7.30;1.92;;;;;;;3.07;100.00;97464.97;6102967;19;19999;-75
2023/11/24 07:05:33;;;;;;;7.00;2.87;;;;;;;3.06;100.00;97449.69;6105128;19;20041;-75
2023/11/24 07:07:34;;;;;;;7.53;4.00;;;;;;;3.04;100.00;97449.28;6103862;19;20255;-75
2023/11/24 07:09:34;;;;;;;8.88;2.47;;;;;;;3.07;100.00;97454.84;6105645;19;20126;-75
2023/11/24 07:11:35;;;;;;;6.82;1.95;;;;;;;3.14;100.00;97451.47;6104890;19;20090;-75
2023/11/24 07:13:35;;;;;;;3.72;2.25;;;;;;;3.22;100.00;97441.50;6104406;19;20002;-75
2023/11/24 07:15:35;;;;;;;4.78;1.92;;;;;;;3.20;100.00;97444.59;6104937;19;20780;-75
2023/11/24 07:17:36;;;;;;;6.07;2.13;;;;;;;3.22;100.00;97453.22;6103944;19;20010;-76
2023/11/24 07:19:37;;;;;;;4.70;1.70;;;;;;;3.31;100.00;97459.31;6104897;19;20517;-75
2023/11/24 07:21:38;;;;;;;4.60;1.75;;;;;;;3.33;100.00;97459.75;6104978;19;20006;-75
2023/11/24 07:23:39;;;;;;;4.20;1.48;;;;;;;3.38;100.00;97464.94;6104186;19;20565;-75
2023/11/24 07:25:40;;;;;;;12.00;2.05;;;;;;;3.43;100.00;97461.13;6104048;19;20010;-75
2023/11/24 07:27:41;;;;;;;4.22;1.55;;;;;;;3.37;100.00;97454.34;6093797;19;20006;-75
2023/11/24 07:29:41;;;;;;;4.30;1.30;;;;;;;3.41;100.00;97454.44;6104427;19;20018;-75
2023/11/24 07:31:42;;;;;;;5.63;1.90;;;;;;;3.40;100.00;97453.66;6104462;19;20462;-76
2023/11/24 07:33:42;;;;;;;3.40;1.40;;;;;;;3.36;100.00;97459.03;6104373;19;20017;-75
2023/11/24 07:35:43;;;;;;;6.30;2.20;;;;;;;3.37;100.00;97452.41;6102435;19;20014;-76
2023/11/24 07:37:43;;;;;;;4.38;1.85;;;;;;;3.40;100.00;97459.13;6100850;19;20013;-75
2023/11/24 07:39:44;;;;;;;9.52;2.08;;;;;;;3.32;100.00;97449.16;6103336;19;20455;-75
2023/11/24 07:41:44;;;;;;;7.22;2.63;;;;;;;3.37;100.00;97452.41;6104616;19;20023;-75
2023/11/24 07:43:44;;;;;;;6.05;1.88;;;;;;;3.44;100.00;97449.06;6104070;19;20007;-75
2023/11/24 07:45:50;;;;;;;7.63;1.60;;;;;;;3.53;100.00;97444.16;6104040;19;20199;-74
2023/11/24 07:47:51;;;;;;;7.43;1.55;;;;;;;3.54;100.00;97444.97;6100587;19;20011;-76
2023/11/24 07:49:51;;;;;;;4.40;1.13;;;;;;;3.67;100.00;97449.19;6103936;19;20037;-75
2023/11/24 07:51:51;;;;;;;5.68;1.33;;;;;;;3.73;100.00;97442.28;6104054;19;20774;-75
2023/11/24 07:53:52;;;;;;;2.00;1.15;;;;;;;3.87;100.00;97441.78;6103780;19;20691;-76
2023/11/24 07:55:52;;;;;;;5.65;1.88;;;;;;;3.94;100.00;97442.72;6103369;19;19999;-74
2023/11/24 07:57:53;;;;;;;4.78;1.27;;;;;;;4.03;100.00;97444.44;6101912;19;20006;-75
2023/11/24 07:59:53;;;;;;;6.72;1.73;;;;;;;4.03;100.00;97438.97;6103503;19;20483;-75
2023/11/24 08:01:54;;;;;;;7.82;1.90;;;;;;;4.03;100.00;97433.50;6103715;19;20006;-74
2023/11/24 08:03:55;;;;;;;2.85;1.30;;;;;;;4.12;100.00;97434.84;6103024;19;20489;-75
2023/11/24 08:05:56;;;;;;;3.78;1.15;;;;;;;4.03;100.00;97444.44;6101370;19;20430;-75
2023/11/24 08:07:57;;;;;;;6.93;2.35;;;;;;;4.02;100.00;97453.81;6101634;19;20348;-75
2023/11/24 08:09:57;;;;;;;19.45;5.35;;;;;;;4.03;100.00;97441.72;6104078;19;20027;-75
2023/11/24 08:11:58;;;;;;;13.52;4.78;;;;;;;4.02;100.00;97440.91;6102813;19;20006;-75
2023/11/24 08:13:58;;;;;;;14.07;4.00;;;;;;;4.07;100.00;97442.59;6103514;19;20468;-75
2023/11/24 08:16:00;;;;;;;15.30;3.45;;;;;;;4.05;100.00;97434.72;6102855;19;20006;-75
2023/11/24 08:18:00;;;;;;;10.15;3.25;;;;;;;4.05;100.00;97431.97;6101712;19;20438;-75
2023/11/24 08:20:00;;;;;;;15.50;6.43;;;;;;;4.03;100.00;97428.81;6103209;19;19999;-75
2023/11/24 08:22:01;;;;;;;11.38;4.03;;;;;;;3.91;100.00;97429.75;6103745;19;20382;-75
2023/11/24 08:24:01;;;;;;;7.20;2.78;;;;;;;3.95;100.00;97421.59;6102052;19;20006;-75
2023/11/24 08:26:05;;;;;;;4.93;1.63;;;;;;;3.93;100.00;97412.97;6103750;19;20013;-75
2023/11/24 08:28:05;;;;;;;4.53;1.60;;;;;;;3.94;100.00;97422.75;6095341;19;20009;-75
2023/11/24 08:30:10;;;;;;;7.57;1.73;;;;;;;3.90;100.00;97419.19;6094330;19;20097;-75
2023/11/24 08:32:10;;;;;;;5.05;1.73;;;;;;;3.99;100.00;97416.22;6093952;19;19998;-75
2023/11/24 08:34:13;;;;;;;8.50;1.55;;;;;;;4.07;100.00;97409.75;6093015;19;20288;-75
2023/11/24 08:36:13;;;;;;;3.75;1.33;;;;;;;4.06;100.00;97406.22;6094270;19;20010;-74
2023/11/24 08:38:14;;;;;;;5.43;1.30;;;;;;;4.07;100.00;97409.75;6092967;19;20430;-75
2023/11/24 08:40:16;;;;;;;6.82;1.98;;;;;;;4.10;100.00;97396.13;6093416;19;20013;-74
2023/11/24 08:42:17;;;;;;;5.65;1.60;;;;;;;4.14;100.00;97402.47;6093447;19;20077;-75
2023/11/24 08:44:19;;;;;;;6.15;1.80;;;;;;;4.19;100.00;97407.63;6094306;19;20031;-75
2023/11/24 08:46:19;;;;;;;8.48;2.30;;;;;;;4.24;100.00;97412.03;6094383;19;20018;-75
2023/11/24 08:48:20;;;;;;;5.18;1.70;;;;;;;4.27;100.00;97410.50;6092117;19;20007;-75
2023/11/24 08:50:20;;;;;;;4.10;1.35;;;;;;;4.24;100.00;97406.56;6093686;19;20283;-74
2023/11/24 08:52:20;;;;;;;5.70;1.50;;;;;;;4.23;100.00;97400.28;6092578;19;20651;-75
2023/11/24 08:54:22;;;;;;;5.88;1.92;;;;;;;4.25;100.00;97397.19;6093584;19;20476;-75
2023/11/24 08:56:22;;;;;;;5.10;2.58;;;;;;;4.25;100.00;97391.72;6093502;19;20031;-75
2023/11/24 08:58:25;;;;;;;8.98;3.47;;;;;;;4.26;100.00;97397.97;6094052;19;20010;-75
2023/11/24 09:00:29;;;;;;;3.42;2.08;;;;;;;4.11;100.00;97385.94;6093560;19;20010;-75
2023/11/24 09:02:30;;;;;;;3.17;1.58;;;;;;;3.96;100.00;97384.88;6093011;19;20002;-75
2023/11/24 09:04:33;;;;;;;7.88;2.05;;;;;;;4.03;100.00;97371.34;6090708;19;20130;-75
2023/11/24 09:06:38;;;;;;;4.20;1.73;;;;;;;4.04;100.00;97386.59;6093228;19;20461;-75
2023/11/24 09:08:38;;;;;;;7.30;1.70;;;;;;;4.08;100.00;97379.25;6092276;19;20070;-75
2023/11/24 09:10:39;;;;;;;9.10;1.83;;;;;;;4.08;100.00;97367.53;6093063;19;20014;-74
2023/11/24 09:12:39;;;;;;;2.22;1.20;;;;;;;4.12;100.00;97385.59;6092685;19;20020;-75
2023/11/24 09:14:40;;;;;;;2.90;1.13;;;;;;;4.00;100.00;97374.81;6092385;19;20493;-75
2023/11/24 09:16:40;;;;;;;8.45;1.58;;;;;;;3.99;100.00;97362.28;6091756;19;20006;-75
2023/11/24 09:18:42;;;;;;;3.85;1.30;;;;;;;3.85;100.00;97367.47;6088471;19;20003;-75
2023/11/24 09:20:42;;;;;;;6.25;1.45;;;;;;;3.70;100.00;97354.66;6091462;19;20003;-75
2023/11/24 09:22:44;;;;;;;2.83;1.30;;;;;;;3.64;100.00;97356.88;6093443;19;20846;-74
2023/11/24 09:24:45;;;;;;;6.82;1.30;;;;;;;3.50;100.00;97354.66;6092101;19;20007;-75
2023/11/24 09:26:45;;;;;;;6.07;1.70;;;;;;;3.48;100.00;97353.44;6090704;19;20372;-75
2023/11/24 09:28:45;;;;;;;7.75;1.40;;;;;;;3.41;100.00;97334.13;6099162;19;20074;-75